Time;durP1;ratioP1;P1;durP2;ratioP2;P2;SDS_P1;SDS_P2;PMS_P1;PMS_P2;Temp;Humidity;BMP_temperature;BMP_pressure;BME280_temperature;BME280_humidity;BME280_pressure;Samples;Min_cycle;Max_cycle;Signal;HPM_P1;HPM_P2
2022/12/17 13:08:02;;;;;;;0.00;0.00;;;;;;;-0.26;95.99;101490.50;5053057;28;20492;-77
2022/12/17 13:10:30;;;;;;;0.00;0.00;;;;;;;-0.21;95.92;101496.03;5053249;28;20176;-76
2022/12/17 13:12:58;;;;;;;0.00;0.00;;;;;;;-0.13;96.35;101488.56;5053005;28;20789;-76
2022/12/17 13:15:35;;;;;;;1.93;1.80;;;;;;;-0.21;95.51;101491.50;5053124;28;20780;-78
2022/12/17 13:18:31;;;;;;;1.60;1.60;;;;;;;-0.33;95.02;101494.03;5053015;28;20409;-77
2022/12/17 13:21:00;;;;;;;0.30;0.30;;;;;;;-0.40;95.41;101489.72;5068354;28;20425;-77
2022/12/17 13:23:30;;;;;;;0.30;0.30;;;;;;;-0.53;95.41;101495.97;5052793;28;20962;-77
2022/12/17 13:26:14;;;;;;;5.00;2.17;;;;;;;-0.73;96.08;101497.88;5052908;28;20414;-76
2022/12/17 13:28:39;;;;;;;1.20;1.20;;;;;;;-0.70;96.47;101503.66;5053265;28;20433;-78
2022/12/17 13:31:15;;;;;;;3.37;3.07;;;;;;;-0.78;96.95;101500.38;5052762;28;20406;-76
2022/12/17 13:34:14;;;;;;;0.00;0.00;;;;;;;-0.87;97.02;101498.94;5052206;28;20476;-77
2022/12/17 13:36:52;;;;;;;1.10;1.10;;;;;;;-0.93;97.74;101498.75;5039999;28;20422;-78
2022/12/17 13:39:45;;;;;;;0.90;0.90;;;;;;;-0.87;96.55;101497.09;5051120;28;20433;-77
2022/12/17 13:42:33;;;;;;;0.00;0.00;;;;;;;-0.87;94.51;101498.94;5052561;28;20458;-77
2022/12/17 13:44:59;;;;;;;3.53;3.23;;;;;;;-0.80;93.31;101507.81;5050794;28;20917;-77
2022/12/17 13:47:31;;;;;;;1.20;1.20;;;;;;;-0.68;90.61;101506.97;5052176;28;20469;-77
2022/12/17 13:49:58;;;;;;;0.87;0.87;;;;;;;-0.64;89.53;101507.34;5052325;28;20175;-77
2022/12/17 13:52:26;;;;;;;0.40;0.40;;;;;;;-0.77;89.77;101510.06;5051840;28;20456;-77
2022/12/17 13:54:52;;;;;;;1.57;1.57;;;;;;;-0.87;90.40;101513.19;5052056;28;20428;-78
2022/12/17 13:57:24;;;;;;;0.00;0.00;;;;;;;-0.90;90.85;101516.28;5052062;28;20588;-78
2022/12/17 13:59:57;;;;;;;1.00;1.00;;;;;;;-0.90;89.87;101513.59;5067312;28;20426;-77
2022/12/17 14:02:30;;;;;;;2.60;2.40;;;;;;;-0.94;88.94;101515.88;5050592;28;20429;-77
2022/12/17 14:04:58;;;;;;;0.37;0.37;;;;;;;-0.93;87.67;101516.72;5051089;28;20512;-78
2022/12/17 14:07:25;;;;;;;0.47;0.47;;;;;;;-0.99;87.27;101515.69;5051667;28;20471;-78
2022/12/17 14:09:51;;;;;;;4.57;4.23;;;;;;;-1.05;87.42;101513.84;5052143;28;20468;-76
2022/12/17 14:12:25;;;;;;;0.70;0.70;;;;;;;-1.07;87.01;101520.44;5067241;28;20425;-78
2022/12/17 14:15:03;;;;;;;0.37;0.30;;;;;;;-1.13;86.71;101521.28;5051547;28;20525;-77
2022/12/17 14:17:43;;;;;;;0.93;0.93;;;;;;;-1.09;86.58;101526.03;5051377;28;20428;-77
2022/12/17 14:20:34;;;;;;;8.97;0.70;;;;;;;-1.12;86.00;101528.28;5051681;28;20917;-77
2022/12/17 14:23:25;;;;;;;0.00;0.00;;;;;;;-1.14;85.57;101533.03;5066566;28;20972;-78
2022/12/17 14:25:51;;;;;;;0.00;0.00;;;;;;;-1.21;85.60;101531.19;5051538;28;20775;-78
2022/12/17 14:28:34;;;;;;;1.03;1.03;;;;;;;-1.26;85.12;101535.53;5051432;28;20469;-77
2022/12/17 14:31:23;;;;;;;0.00;0.00;;;;;;;-1.35;85.49;101528.69;5051514;28;20662;-78
2022/12/17 14:34:00;;;;;;;0.00;0.00;;;;;;;-1.43;85.67;101535.09;5051176;28;20422;-78
2022/12/17 14:36:27;;;;;;;3.33;1.57;;;;;;;-1.45;86.04;101531.78;5051401;28;20425;-78
2022/12/17 14:38:54;;;;;;;0.00;0.00;;;;;;;-1.56;86.13;101543.13;5051506;28;20813;-78
2022/12/17 14:44:05;;;;;;;0.10;0.10;;;;;;;-1.75;87.48;101547.41;5051007;28;20441;-77
2022/12/17 14:46:32;;;;;;;0.03;0.03;;;;;;;-1.82;87.64;101541.22;5050942;28;20983;-78
2022/12/17 14:49:00;;;;;;;0.20;0.20;;;;;;;-1.94;87.52;101543.66;5051291;28;20435;-77
2022/12/17 14:51:31;;;;;;;1.03;0.93;;;;;;;-2.02;88.36;101541.19;5051043;28;20421;-77
2022/12/17 14:54:12;;;;;;;0.00;0.00;;;;;;;-2.13;88.56;101545.25;5050527;28;20960;-77
2022/12/17 14:56:39;;;;;;;0.57;0.57;;;;;;;-2.27;88.87;101543.56;5050970;28;20451;-77
2022/12/17 14:59:04;;;;;;;0.37;0.37;;;;;;;-2.29;89.20;101544.78;5050899;28;20417;-78
2022/12/17 15:01:30;;;;;;;0.00;0.00;;;;;;;-2.42;89.58;101551.72;5050934;28;20414;-77
2022/12/17 15:03:55;;;;;;;0.20;0.20;;;;;;;-2.51;89.45;101546.72;5050545;28;20187;-77
2022/12/17 15:06:21;;;;;;;0.00;0.00;;;;;;;-2.60;89.47;101550.59;5050517;28;20171;-78
2022/12/17 15:08:49;;;;;;;0.73;0.73;;;;;;;-2.70;89.83;101553.63;5051029;28;20773;-77
2022/12/17 15:11:17;;;;;;;1.40;1.40;;;;;;;-2.77;90.64;101552.72;5050967;28;20187;-77
2022/12/17 15:13:42;;;;;;;2.77;2.57;;;;;;;-2.83;90.89;101550.84;5050555;28;20417;-78
2022/12/17 15:16:07;;;;;;;4.13;1.50;;;;;;;-2.89;91.02;101548.94;5050462;28;20434;-78
2022/12/17 15:18:33;;;;;;;2.50;2.30;;;;;;;-3.00;91.19;101545.81;5050738;28;20194;-77
2022/12/17 15:20:59;;;;;;;1.70;1.60;;;;;;;-3.09;92.20;101556.84;5050546;28;20639;-78
2022/12/17 15:23:24;;;;;;;3.43;1.60;;;;;;;-3.15;92.10;101560.28;5050382;28;20171;-78
2022/12/17 15:25:51;;;;;;;0.00;0.00;;;;;;;-3.15;92.93;101554.94;5050582;28;20322;-78
2022/12/17 15:28:18;;;;;;;0.23;0.23;;;;;;;-3.14;93.28;101557.44;5050355;28;20211;-77
2022/12/17 15:30:44;;;;;;;1.27;1.27;;;;;;;-3.14;93.50;101559.28;5050457;28;20406;-78
2022/12/17 15:33:10;;;;;;;0.00;0.00;;;;;;;-3.14;93.88;101562.78;5050221;28;20414;-78
2022/12/17 15:35:37;;;;;;;0.00;0.00;;;;;;;-3.13;93.60;101556.41;5050371;28;20418;-78
2022/12/17 15:38:03;;;;;;;0.10;0.10;;;;;;;-3.13;93.84;101564.44;5050396;28;20246;-78
2022/12/17 15:40:29;;;;;;;0.00;0.00;;;;;;;-3.09;94.24;101565.69;5050240;28;20405;-78
2022/12/17 15:43:12;;;;;;;4.50;2.23;;;;;;;-3.07;94.48;101565.47;5050276;28;21048;-77
2022/12/17 15:45:45;;;;;;;0.20;0.20;;;;;;;-2.93;93.77;101563.75;5050241;28;20668;-77
2022/12/17 15:48:13;;;;;;;4.57;2.33;;;;;;;-2.93;93.75;101569.91;5050318;28;20568;-78
2022/12/17 15:50:39;;;;;;;0.93;0.27;;;;;;;-2.94;93.83;101564.75;5050548;28;20422;-78
2022/12/17 15:53:04;;;;;;;0.97;0.87;;;;;;;-2.95;92.92;101566.59;5049703;28;20967;-76
2022/12/17 15:55:30;;;;;;;0.23;0.23;;;;;;;-2.98;93.05;101568.84;5050216;28;20167;-78
2022/12/17 15:57:56;;;;;;;0.53;0.53;;;;;;;-3.06;92.97;101562.63;5065693;28;20171;-78
2022/12/17 16:00:23;;;;;;;1.60;1.50;;;;;;;-3.13;93.08;101556.41;5050610;28;20263;-77
2022/12/17 16:02:48;;;;;;;0.73;0.73;;;;;;;-3.20;93.24;101558.19;5049834;28;20578;-77
2022/12/17 16:05:14;;;;;;;1.20;1.20;;;;;;;-3.22;93.92;101564.75;5049815;28;20498;-78
2022/12/17 16:07:42;;;;;;;0.50;0.50;;;;;;;-3.23;93.88;101568.44;5050169;28;20199;-78
2022/12/17 16:10:08;;;;;;;0.30;0.30;;;;;;;-3.31;93.77;101566.75;5050041;28;20195;-78
2022/12/17 16:12:34;;;;;;;0.00;0.00;;;;;;;-3.38;94.09;101573.84;5049889;28;20925;-78
2022/12/17 16:14:59;;;;;;;0.37;0.30;;;;;;;-3.44;94.02;101569.28;5049970;28;20443;-78
2022/12/17 16:17:24;;;;;;;0.40;0.40;;;;;;;-3.46;94.26;101574.84;5050155;28;20172;-78
2022/12/17 16:19:49;;;;;;;0.67;0.40;;;;;;;-3.44;94.50;101571.97;5050310;28;20171;-78
2022/12/17 16:22:15;;;;;;;1.80;1.03;;;;;;;-3.51;94.21;101576.41;5050247;28;20559;-77
2022/12/17 16:24:40;;;;;;;0.00;0.00;;;;;;;-3.58;94.10;101575.53;5049701;28;20250;-78
2022/12/17 16:27:06;;;;;;;1.00;1.00;;;;;;;-3.61;94.23;101582.91;5050579;28;20219;-77
2022/12/17 16:29:31;;;;;;;0.17;0.17;;;;;;;-3.63;93.96;101581.41;5056206;28;20626;-76
2022/12/17 16:31:58;;;;;;;0.20;0.20;;;;;;;-3.57;94.17;101583.34;5053649;28;20278;-76
2022/12/17 16:34:24;;;;;;;0.37;0.37;;;;;;;-3.60;94.05;101589.06;5053664;28;20305;-76
2022/12/17 16:36:49;;;;;;;0.00;0.00;;;;;;;-3.50;94.08;101586.06;5053470;28;20434;-76
2022/12/17 16:39:16;;;;;;;0.43;0.43;;;;;;;-3.45;93.77;101591.69;5053709;28;20171;-80
2022/12/17 16:41:42;;;;;;;0.53;0.53;;;;;;;-3.39;93.41;101586.38;5053310;28;20284;-75
2022/12/17 16:44:07;;;;;;;1.07;0.97;;;;;;;-3.35;92.39;101586.81;5058902;28;20528;-76
2022/12/17 16:46:35;;;;;;;1.73;1.73;;;;;;;-3.35;91.89;101597.50;5073606;28;20206;-77
2022/12/17 16:49:06;;;;;;;0.77;0.77;;;;;;;-3.36;91.75;101588.69;5073766;28;20279;-76
2022/12/17 16:51:32;;;;;;;0.10;0.10;;;;;;;-3.34;91.37;101585.81;5073673;28;20427;-76
2022/12/17 16:53:57;;;;;;;0.00;0.00;;;;;;;-3.30;91.12;101597.78;5073173;28;20424;-77
2022/12/17 16:56:26;;;;;;;0.00;0.00;;;;;;;-3.27;90.85;101597.41;5073615;28;20178;-76
2022/12/17 16:58:52;;;;;;;0.10;0.10;;;;;;;-3.27;90.79;101591.22;5071973;28;20185;-77
2022/12/17 17:01:23;;;;;;;0.10;0.10;;;;;;;-3.31;90.69;101599.63;5073793;28;20421;-76
2022/12/17 17:03:48;;;;;;;0.47;0.47;;;;;;;-3.35;90.57;101600.19;5073098;28;20198;-76
2022/12/17 17:06:16;;;;;;;1.10;1.10;;;;;;;-3.41;90.42;101603.63;5073316;28;20506;-76
2022/12/17 17:08:41;;;;;;;0.63;0.63;;;;;;;-3.48;90.33;101597.38;5072048;28;20189;-76
2022/12/17 17:11:21;;;;;;;0.77;0.77;;;;;;;-3.51;90.27;101598.59;5073525;28;20413;-76
2022/12/17 17:13:48;;;;;;;0.00;0.00;;;;;;;-3.57;90.61;101599.38;5073166;28;20253;-76
2022/12/17 17:16:14;;;;;;;1.10;1.10;;;;;;;-3.60;90.27;101611.25;5071986;28;20835;-76
2022/12/17 17:18:40;;;;;;;1.07;1.07;;;;;;;-3.68;90.58;101611.38;5073109;28;20455;-76
2022/12/17 17:21:11;;;;;;;3.70;2.57;;;;;;;-3.72;90.79;101611.94;5073178;28;20405;-76
2022/12/17 17:23:37;;;;;;;0.00;0.00;;;;;;;-3.73;90.67;101619.13;5073180;28;20190;-77
2022/12/17 17:26:02;;;;;;;0.00;0.00;;;;;;;-3.78;91.37;101618.00;5072870;28;20421;-75
2022/12/17 17:28:28;;;;;;;0.00;0.00;;;;;;;-3.79;91.03;101613.69;5073176;28;20464;-76
2022/12/17 17:30:58;;;;;;;1.60;1.60;;;;;;;-3.83;91.61;101626.59;5072901;28;20174;-76
2022/12/17 17:33:28;;;;;;;0.00;0.00;;;;;;;-3.88;91.21;101626.34;5072511;28;20166;-76
2022/12/17 17:35:54;;;;;;;1.30;1.30;;;;;;;-3.98;91.32;101620.47;5072883;28;20503;-76
2022/12/17 17:38:19;;;;;;;0.53;0.53;;;;;;;-4.04;91.37;101616.72;5072547;28;21011;-76
2022/12/17 17:40:44;;;;;;;0.00;0.00;;;;;;;-4.23;91.99;101620.75;5071793;28;20421;-77
2022/12/17 17:43:10;;;;;;;0.57;0.57;;;;;;;-4.29;92.37;101624.19;5072432;28;20173;-76
2022/12/17 17:45:39;;;;;;;0.40;0.40;;;;;;;-4.21;92.30;101631.25;5072579;28;20174;-76
2022/12/17 17:48:04;;;;;;;1.10;1.10;;;;;;;-4.10;92.63;101632.63;5072408;28;20464;-75
2022/12/17 17:50:29;;;;;;;0.00;0.00;;;;;;;-3.98;92.09;101631.13;5072655;28;20911;-76
2022/12/17 17:52:55;;;;;;;0.00;0.00;;;;;;;-3.94;91.78;101641.25;5072090;28;20167;-76
2022/12/17 17:55:20;;;;;;;0.43;0.43;;;;;;;-3.76;91.21;101638.19;5072525;28;20209;-76
2022/12/17 17:57:45;;;;;;;0.77;0.77;;;;;;;-3.70;90.16;101640.09;5072303;28;20257;-76
2022/12/17 18:00:11;;;;;;;2.13;1.00;;;;;;;-3.58;89.29;101645.78;5072228;28;20174;-77
2022/12/17 18:02:36;;;;;;;7.83;2.67;;;;;;;-3.55;88.46;101641.91;5072031;28;20207;-77
2022/12/17 18:05:01;;;;;;;4.03;1.33;;;;;;;-3.41;88.01;101641.03;5072189;28;20167;-76
2022/12/17 18:07:27;;;;;;;0.30;0.30;;;;;;;-3.19;86.53;101647.19;5070735;28;20202;-77
2022/12/17 18:09:52;;;;;;;0.40;0.40;;;;;;;-3.07;85.30;101645.66;5071930;28;20178;-77
2022/12/17 18:15:01;;;;;;;0.20;0.20;;;;;;;-3.07;84.56;101643.81;5072222;28;20672;-77
2022/12/17 18:17:27;;;;;;;0.20;0.20;;;;;;;-3.01;83.81;101652.94;5070560;28;20436;-77
2022/12/17 18:19:52;;;;;;;0.17;0.17;;;;;;;-3.05;83.98;101646.28;5071912;28;20175;-76
2022/12/17 18:22:17;;;;;;;0.00;0.00;;;;;;;-3.02;83.67;101652.09;5071881;28;20189;-76
2022/12/17 18:24:42;;;;;;;0.20;0.20;;;;;;;-3.01;83.57;101651.09;5071381;28;20190;-76
2022/12/17 18:27:08;;;;;;;2.37;2.17;;;;;;;-3.02;83.88;101654.78;5071603;28;20676;-76
2022/12/17 18:29:33;;;;;;;0.00;0.00;;;;;;;-3.12;83.20;101646.25;5071833;28;20170;-76
2022/12/17 18:31:58;;;;;;;0.27;0.27;;;;;;;-3.21;83.91;101655.41;5071578;28;20529;-76
2022/12/17 18:34:27;;;;;;;4.00;3.80;;;;;;;-3.22;83.90;101666.28;5071491;28;20174;-77
2022/12/17 18:36:52;;;;;;;0.00;0.00;;;;;;;-3.27;84.13;101655.34;5072013;28;20201;-77
2022/12/17 18:39:20;;;;;;;0.00;0.00;;;;;;;-3.47;84.37;101663.13;5073860;28;20424;-77
2022/12/17 18:44:32;;;;;;;0.07;0.07;;;;;;;-3.23;84.51;101667.31;5072882;28;20467;-77
2022/12/17 18:46:57;;;;;;;0.20;0.20;;;;;;;-3.18;84.01;101668.41;5070175;28;20473;-77
2022/12/17 18:49:25;;;;;;;0.40;0.40;;;;;;;-3.05;83.89;101667.69;5071853;28;20417;-76
2022/12/17 18:51:51;;;;;;;0.00;0.00;;;;;;;-3.01;83.39;101674.31;5070660;28;20181;-77
2022/12/17 18:54:20;;;;;;;0.00;0.00;;;;;;;-3.18;83.33;101671.09;5069795;28;20454;-77
2022/12/17 18:56:46;;;;;;;0.00;0.00;;;;;;;-3.38;nan;101678.88;5071198;28;20424;-77
2022/12/17 18:59:17;;;;;;;0.00;0.00;;;;;;;-3.42;84.37;101679.44;5071273;28;20439;-77
2022/12/17 19:01:42;;;;;;;1.30;1.30;;;;;;;-3.69;84.80;101687.16;5070001;28;20178;-77
2022/12/17 19:04:10;;;;;;;0.47;0.47;;;;;;;-3.86;85.40;101690.22;5070823;28;20437;-77
2022/12/17 19:06:37;;;;;;;0.30;0.30;;;;;;;-3.82;86.00;101696.84;5070938;28;20190;-77
2022/12/17 19:09:04;;;;;;;0.00;0.00;;;;;;;-3.95;86.52;101692.97;5070837;28;20413;-77
2022/12/17 19:11:30;;;;;;;0.00;0.00;;;;;;;-4.00;87.06;101703.38;5070974;28;20452;-77
2022/12/17 19:13:55;;;;;;;3.30;3.13;;;;;;;-4.04;87.34;101688.75;5070774;28;20551;-77
2022/12/17 19:16:23;;;;;;;0.00;0.00;;;;;;;-4.12;87.96;101696.03;5070732;28;20230;-77
2022/12/17 19:18:54;;;;;;;0.00;0.00;;;;;;;-4.28;88.34;101692.53;5070918;28;20189;-77
2022/12/17 19:21:20;;;;;;;6.53;6.13;;;;;;;-4.30;88.60;101705.22;5070698;28;20934;-77
2022/12/17 19:23:47;;;;;;;0.10;0.10;;;;;;;-4.42;89.27;101705.84;5070658;28;20420;-77
2022/12/17 19:26:18;;;;;;;0.00;0.00;;;;;;;-4.43;89.09;101705.00;5070724;28;20821;-77
2022/12/17 19:28:46;;;;;;;4.33;1.03;;;;;;;-4.73;89.78;101703.31;5070647;28;20603;-77
2022/12/17 19:31:13;;;;;;;0.00;0.00;;;;;;;-4.81;90.44;101697.00;5070608;28;20416;-77
2022/12/17 19:33:39;;;;;;;0.50;0.50;;;;;;;-4.78;91.18;101701.97;5070428;28;20429;-77
2022/12/17 19:36:11;;;;;;;0.77;0.77;;;;;;;-4.85;91.66;101692.22;5070498;28;20523;-77
2022/12/17 19:38:36;;;;;;;3.40;3.30;;;;;;;-4.90;92.36;101691.94;5070942;28;20198;-77
2022/12/17 19:41:07;;;;;;;0.13;0.13;;;;;;;-4.69;92.90;101688.59;5070630;28;20505;-77
2022/12/17 19:43:32;;;;;;;0.67;0.67;;;;;;;-4.49;92.39;101687.06;5070466;28;20204;-77
2022/12/17 19:46:10;;;;;;;1.13;1.13;;;;;;;-4.72;92.16;101695.13;5070390;28;20429;-82
2022/12/17 19:48:36;;;;;;;0.00;0.00;;;;;;;-4.96;92.82;101692.66;5070943;28;20726;-77
2022/12/17 19:51:05;;;;;;;0.00;0.00;;;;;;;-5.05;93.64;101691.06;5070427;28;20425;-77
2022/12/17 19:53:31;;;;;;;0.00;0.00;;;;;;;-5.09;93.85;101691.41;5070185;28;20413;-77
2022/12/17 19:56:09;;;;;;;0.53;0.53;;;;;;;-5.10;93.76;101700.41;5070629;28;20423;-77
2022/12/17 19:58:34;;;;;;;0.00;0.00;;;;;;;-5.09;94.41;101703.91;5070232;28;20478;-77
2022/12/17 20:01:15;;;;;;;0.00;0.00;;;;;;;-4.95;95.02;101704.97;5070443;28;20416;-77
2022/12/17 20:03:42;;;;;;;0.00;0.00;;;;;;;-4.98;95.27;101708.00;5073054;28;20197;-77
2022/12/17 20:06:10;;;;;;;0.00;0.00;;;;;;;-4.82;95.29;101705.19;5074185;28;20416;-77
2022/12/17 20:08:35;;;;;;;1.73;0.57;;;;;;;-4.75;94.53;101713.31;5074243;28;20599;-77
2022/12/17 20:11:31;;;;;;;0.10;0.10;;;;;;;-4.73;94.25;101700.63;5074664;28;20525;-77
2022/12/17 20:14:01;;;;;;;0.77;0.77;;;;;;;-4.71;93.33;101703.94;5074095;28;20182;-76
2022/12/17 20:16:27;;;;;;;0.30;0.30;;;;;;;-4.78;92.71;101709.16;5074523;28;20401;-77
2022/12/17 20:18:53;;;;;;;2.33;1.10;;;;;;;-4.78;92.60;101714.47;5074594;28;20955;-78
2022/12/17 20:21:18;;;;;;;1.87;1.60;;;;;;;-4.89;92.14;101715.75;5075040;28;20497;-77
2022/12/17 20:23:48;;;;;;;0.03;0.03;;;;;;;-4.92;92.54;101716.13;5074419;28;20205;-76
2022/12/17 20:26:13;;;;;;;0.60;0.60;;;;;;;-4.95;92.77;101719.09;5074100;28;20183;-76
2022/12/17 20:28:39;;;;;;;0.00;0.00;;;;;;;-4.96;93.11;101711.28;5074175;28;20474;-77
2022/12/17 20:31:04;;;;;;;1.37;1.37;;;;;;;-5.01;92.76;101719.84;5072773;28;20221;-77
2022/12/17 20:33:30;;;;;;;0.07;0.07;;;;;;;-5.01;92.97;101719.00;5073885;28;20305;-76
2022/12/17 20:36:03;;;;;;;3.23;3.10;;;;;;;-4.97;93.66;101718.47;5073892;28;20171;-76
2022/12/17 20:38:28;;;;;;;1.57;1.47;;;;;;;-4.93;94.14;101722.41;5073789;28;20190;-76
2022/12/17 20:40:53;;;;;;;0.57;0.57;;;;;;;-4.92;93.61;101723.25;5073912;28;20945;-76
2022/12/17 20:43:19;;;;;;;1.77;1.67;;;;;;;-4.96;93.74;101722.78;5072366;28;20179;-76
2022/12/17 20:45:49;;;;;;;0.30;0.30;;;;;;;-4.98;94.59;101724.81;5073712;28;20257;-76
2022/12/17 20:48:14;;;;;;;7.53;2.20;;;;;;;-5.00;94.08;101728.66;5073700;28;20365;-76
2022/12/17 20:50:39;;;;;;;0.00;0.00;;;;;;;-5.00;94.06;101732.16;5073783;28;20409;-76
2022/12/17 20:53:05;;;;;;;3.50;1.73;;;;;;;-5.01;94.59;101735.81;5071798;28;20607;-76
2022/12/17 20:55:31;;;;;;;2.13;2.03;;;;;;;-5.00;94.62;101732.16;5073579;28;20647;-77
2022/12/17 20:57:56;;;;;;;2.50;2.40;;;;;;;-4.99;94.64;101741.78;5073500;28;20197;-77
2022/12/17 21:00:22;;;;;;;0.00;0.00;;;;;;;-5.01;94.85;101751.81;5073442;28;20531;-76
2022/12/17 21:02:47;;;;;;;0.47;0.47;;;;;;;-5.06;94.67;101740.84;5073120;28;20190;-76
2022/12/17 21:05:12;;;;;;;0.20;0.20;;;;;;;-5.10;95.02;101755.53;5073421;28;20175;-76
2022/12/17 21:07:37;;;;;;;1.70;1.60;;;;;;;-5.15;94.90;101755.22;5073327;28;20213;-77
2022/12/17 21:10:03;;;;;;;0.47;0.47;;;;;;;-5.23;94.53;101763.25;5073382;28;20537;-76
2022/12/17 21:13:27;;;;;;;1.00;0.80;;;;;;;-5.23;95.07;101764.09;5073212;28;20621;-76
2022/12/17 21:15:14;;;;;;;7.70;6.97;;;;;;;-5.20;95.00;101760.25;5072965;28;20269;-76
2022/12/17 21:17:39;;;;;;;0.00;0.00;;;;;;;-5.27;95.11;101761.94;5073120;28;20536;-77
2022/12/17 21:20:05;;;;;;;0.00;0.00;;;;;;;-5.35;95.37;101759.31;5073173;28;20175;-76
2022/12/17 21:22:30;;;;;;;0.00;0.00;;;;;;;-5.39;95.28;101761.50;5072958;28;20175;-75
2022/12/17 21:24:55;;;;;;;0.00;0.00;;;;;;;-5.29;96.57;101763.97;5073145;28;20175;-76
2022/12/17 21:27:21;;;;;;;0.00;0.00;;;;;;;-5.33;97.03;101754.69;5073195;28;20190;-76
2022/12/17 21:29:47;;;;;;;0.00;0.00;;;;;;;-5.15;96.59;101763.22;5073087;28;20254;-76
2022/12/17 21:32:12;;;;;;;0.57;0.57;;;;;;;-5.06;96.51;101759.50;5072982;28;20500;-77
2022/12/17 21:34:37;;;;;;;2.53;2.43;;;;;;;-5.07;96.25;101757.00;5072640;28;20603;-75
2022/12/17 21:37:03;;;;;;;0.60;0.60;;;;;;;-5.24;96.36;101759.75;5072752;28;20181;-76
2022/12/17 21:39:29;;;;;;;0.87;0.87;;;;;;;-5.37;95.52;101764.81;5073079;28;20178;-76
2022/12/17 21:44:38;;;;;;;1.50;1.50;;;;;;;-5.35;95.89;101767.31;5072868;28;20169;-76
2022/12/17 21:47:03;;;;;;;0.73;0.63;;;;;;;-5.35;96.62;101768.16;5072390;28;20472;-77
2022/12/17 21:49:29;;;;;;;6.77;1.30;;;;;;;-5.32;96.70;101769.66;5072483;28;20179;-77
2022/12/17 21:51:54;;;;;;;0.60;0.60;;;;;;;-5.31;96.33;101781.97;5072217;28;20193;-76
2022/12/17 21:54:19;;;;;;;0.93;0.93;;;;;;;-5.35;96.08;101783.28;5072381;28;20174;-76
2022/12/17 21:56:45;;;;;;;0.10;0.10;;;;;;;-5.47;96.52;101782.88;5072916;28;20175;-76
2022/12/17 21:59:10;;;;;;;0.00;0.00;;;;;;;-5.63;96.34;101781.09;5072469;28;20174;-76
2022/12/17 22:01:35;;;;;;;1.77;1.70;;;;;;;-5.69;96.60;101790.59;5072302;28;20617;-76
2022/12/17 22:04:03;;;;;;;3.23;3.03;;;;;;;-5.72;96.82;101788.28;5072008;28;20559;-76
2022/12/17 22:06:31;;;;;;;1.00;1.00;;;;;;;-5.72;96.74;101790.09;5071791;28;20183;-77
2022/12/17 22:08:57;;;;;;;1.93;1.73;;;;;;;-5.77;97.10;101785.31;5072089;28;20466;-77
2022/12/17 22:11:24;;;;;;;2.40;2.23;;;;;;;-5.81;97.78;101783.97;5070618;28;20413;-79
2022/12/17 22:14:05;;;;;;;0.40;0.40;;;;;;;-5.84;97.46;101786.97;5071302;28;20435;-75
2022/12/17 22:16:45;;;;;;;2.37;2.27;;;;;;;-5.87;97.76;101781.16;5070800;28;20912;-75
2022/12/17 22:19:19;;;;;;;1.37;1.37;;;;;;;-5.86;97.68;101788.16;5070694;28;20504;-76
2022/12/17 22:21:46;;;;;;;0.80;0.50;;;;;;;-5.90;98.33;101779.72;5071935;28;20752;-75
2022/12/17 22:24:16;;;;;;;0.10;0.10;;;;;;;-5.89;98.74;101797.31;5072088;28;20413;-76
2022/12/17 22:26:42;;;;;;;0.80;0.80;;;;;;;-5.90;98.46;101797.50;5070141;28;20409;-77
2022/12/17 22:29:08;;;;;;;0.00;0.00;;;;;;;-5.96;98.40;101798.16;5070466;28;20428;-76
2022/12/17 22:34:17;;;;;;;2.70;1.20;;;;;;;-5.99;99.68;101796.69;5071629;28;20219;-76
2022/12/17 22:36:42;;;;;;;1.67;1.67;;;;;;;-5.97;99.06;101807.16;5071556;28;20805;-76
2022/12/17 22:39:11;;;;;;;0.37;0.37;;;;;;;-5.95;99.91;101808.63;5070210;28;20182;-76
2022/12/17 22:44:22;;;;;;;0.30;0.30;;;;;;;-6.00;99.64;101800.34;5071374;28;20911;-76
2022/12/17 22:46:47;;;;;;;1.10;1.10;;;;;;;-6.05;100.00;101808.84;5071014;28;20977;-76
2022/12/17 22:49:13;;;;;;;2.17;2.07;;;;;;;-6.07;99.69;101802.03;5071152;28;20460;-76
2022/12/17 22:51:43;;;;;;;0.97;0.97;;;;;;;-6.06;100.00;101803.69;5071402;28;20206;-76
2022/12/17 22:54:11;;;;;;;7.10;2.07;;;;;;;-6.04;99.76;101799.03;5071208;28;20707;-76
2022/12/17 22:56:38;;;;;;;0.20;0.20;;;;;;;-6.06;100.00;101804.53;5071797;28;20449;-76
2022/12/17 22:59:04;;;;;;;0.00;0.00;;;;;;;-5.97;100.00;101800.00;5071381;28;20424;-76
2022/12/17 23:01:30;;;;;;;1.07;1.07;;;;;;;-5.91;100.00;101799.34;5071200;28;20425;-76
2022/12/17 23:03:57;;;;;;;0.47;0.40;;;;;;;-5.91;100.00;101803.84;5069552;28;20860;-76
2022/12/17 23:06:24;;;;;;;20.83;1.50;;;;;;;-5.95;100.00;101803.31;5070949;28;20451;-76
2022/12/17 23:08:49;;;;;;;5.20;2.57;;;;;;;-5.95;100.00;101802.50;5071129;28;20460;-76
2022/12/17 23:11:18;;;;;;;2.07;1.97;;;;;;;-5.98;100.00;101802.84;5071075;28;21060;-76
2022/12/17 23:13:44;;;;;;;2.60;2.50;;;;;;;-5.98;100.00;101793.03;5071158;28;20184;-77
2022/12/17 23:16:12;;;;;;;3.30;3.10;;;;;;;-6.04;100.00;101796.38;5070966;28;20423;-75
2022/12/17 23:18:38;;;;;;;1.63;1.63;;;;;;;-6.06;100.00;101787.75;5071022;28;20429;-76
2022/12/17 23:21:05;;;;;;;1.30;1.30;;;;;;;-6.04;100.00;101786.56;5070914;28;20425;-77
2022/12/17 23:23:30;;;;;;;2.73;2.63;;;;;;;-5.98;100.00;101782.38;5070895;28;20419;-76
2022/12/17 23:25:56;;;;;;;5.17;2.13;;;;;;;-5.92;100.00;101778.22;5070825;28;20413;-76
2022/12/17 23:28:21;;;;;;;1.37;1.37;;;;;;;-5.88;100.00;101776.84;5070865;28;20228;-76
2022/12/17 23:30:47;;;;;;;5.13;4.83;;;;;;;-5.83;100.00;101779.81;5070975;28;20185;-76
2022/12/17 23:33:12;;;;;;;0.20;0.20;;;;;;;-5.74;100.00;101779.63;5070644;28;20174;-77
2022/12/17 23:35:37;;;;;;;1.37;1.37;;;;;;;-5.70;100.00;101783.59;5070806;28;20178;-76
2022/12/17 23:38:03;;;;;;;0.87;0.87;;;;;;;-5.67;100.00;101790.41;5069878;28;20163;-76
2022/12/17 23:40:28;;;;;;;1.50;1.40;;;;;;;-5.65;100.00;101792.91;5070743;28;20528;-76
2022/12/17 23:42:56;;;;;;;0.53;0.53;;;;;;;-5.63;99.84;101796.25;5069298;28;20209;-76
2022/12/17 23:45:21;;;;;;;0.00;0.00;;;;;;;-5.58;99.41;101801.88;5071340;28;20506;-77
2022/12/17 23:47:47;;;;;;;0.27;0.27;;;;;;;-5.65;99.54;101803.53;5070539;28;20543;-76
2022/12/17 23:50:12;;;;;;;0.10;0.10;;;;;;;-5.63;98.73;101807.72;5070541;28;20200;-76
2022/12/17 23:52:38;;;;;;;0.33;0.33;;;;;;;-5.62;99.03;101805.88;5070028;28;20253;-77
2022/12/17 23:55:03;;;;;;;0.30;0.30;;;;;;;-5.73;98.60;101804.41;5070658;28;20166;-77
2022/12/17 23:57:29;;;;;;;2.20;2.10;;;;;;;-5.89;98.03;101799.97;5070521;28;20186;-77
2022/12/17 23:59:54;;;;;;;0.73;0.73;;;;;;;-5.95;97.84;101800.66;5069147;28;20517;-77
